createdAt,value
2023-05-10T00:00:23.919Z,58.29
2023-05-10T00:02:50.643Z,58.11
2023-05-10T00:05:17.502Z,58.54
2023-05-10T00:07:46.255Z,58.30
2023-05-10T00:10:13.006Z,58.73
2023-05-10T00:12:40.188Z,58.38
2023-05-10T00:15:07.887Z,59.09
2023-05-10T00:17:34.844Z,59.47
2023-05-10T00:20:01.892Z,59.70
2023-05-10T00:22:28.603Z,59.53
2023-05-10T00:24:55.501Z,59.86
2023-05-10T00:27:22.270Z,60.02
2023-05-10T00:29:49.399Z,59.66
2023-05-10T00:32:16.730Z,59.35
2023-05-10T00:34:43.686Z,59.07
2023-05-10T00:37:12.065Z,58.79
2023-05-10T00:39:38.932Z,58.54
2023-05-10T00:42:05.749Z,58.79
2023-05-10T00:44:32.378Z,58.73
2023-05-10T00:47:00.445Z,58.87
2023-05-10T00:49:27.616Z,58.87
2023-05-10T00:51:54.538Z,59.15
2023-05-10T00:54:21.762Z,59.17
2023-05-10T00:56:50.466Z,59.30
2023-05-10T00:59:19.345Z,59.58
2023-05-10T01:01:46.833Z,59.84
2023-05-10T01:04:15.059Z,59.99
2023-05-10T01:06:42.578Z,60.82
2023-05-10T01:09:09.431Z,61.04
2023-05-10T01:11:37.952Z,61.27
2023-05-10T01:14:05.684Z,62.09
2023-05-10T01:16:37.663Z,62.30
2023-05-10T01:19:13.788Z,62.22
2023-05-10T01:21:58.310Z,61.88
2023-05-10T01:24:43.747Z,62.06
2023-05-10T01:27:30.616Z,62.45
2023-05-10T01:30:16.348Z,62.59
2023-05-10T01:33:07.509Z,62.61
2023-05-10T01:35:47.399Z,62.45
2023-05-10T01:38:31.414Z,62.27
2023-05-10T01:41:18.790Z,62.33
2023-05-10T01:44:10.834Z,61.94
2023-05-10T01:46:39.681Z,62.06
2023-05-10T01:49:10.548Z,62.00
2023-05-10T01:51:43.309Z,62.31
2023-05-10T01:54:12.379Z,62.77
2023-05-10T01:56:41.320Z,62.72
2023-05-10T01:59:14.183Z,62.80
2023-05-10T02:01:41.747Z,62.81
2023-05-10T02:04:11.150Z,63.07
2023-05-10T02:06:41.396Z,63.16
2023-05-10T02:09:10.326Z,62.99
2023-05-10T02:11:39.010Z,62.98
2023-05-10T02:14:09.036Z,62.93
2023-05-10T02:16:37.181Z,63.14
2023-05-10T02:19:05.055Z,63.14
2023-05-10T02:21:33.858Z,63.04
2023-05-10T02:24:04.574Z,63.31
2023-05-10T02:26:34.851Z,63.22
2023-05-10T02:29:04.809Z,63.68
2023-05-10T02:31:34.359Z,63.19
2023-05-10T02:34:02.517Z,63.27
2023-05-10T02:36:30.238Z,63.18
2023-05-10T02:38:57.936Z,63.01
2023-05-10T02:41:27.843Z,63.04
2023-05-10T02:44:00.411Z,62.86
2023-05-10T02:46:27.225Z,62.77
2023-05-10T02:48:54.096Z,62.78
2023-05-10T02:51:25.819Z,62.83
2023-05-10T02:53:56.261Z,63.21
2023-05-10T02:56:52.236Z,63.15
2023-05-10T02:59:19.009Z,63.03
2023-05-10T03:01:45.798Z,63.59
2023-05-10T03:04:12.617Z,63.39
2023-05-10T03:06:39.487Z,63.60
2023-05-10T03:09:07.253Z,63.86
2023-05-10T03:11:52.681Z,63.94
2023-05-10T03:14:22.456Z,63.95
2023-05-10T03:17:08.800Z,64.37
2023-05-10T03:19:54.194Z,63.96
2023-05-10T03:22:45.667Z,63.98
2023-05-10T03:25:13.510Z,63.91
2023-05-10T03:27:43.169Z,63.89
2023-05-10T03:30:12.945Z,64.00
2023-05-10T03:32:40.035Z,63.68
2023-05-10T03:35:14.473Z,63.44
2023-05-10T03:37:41.235Z,63.43
2023-05-10T03:40:09.305Z,63.78
2023-05-10T03:42:36.177Z,63.98
2023-05-10T03:45:03.098Z,64.01
2023-05-10T03:47:31.043Z,64.17
2023-05-10T03:49:57.747Z,64.52
2023-05-10T03:52:24.472Z,64.49
2023-05-10T03:54:51.392Z,64.64
2023-05-10T03:57:18.365Z,64.92
2023-05-10T03:59:45.117Z,64.64
2023-05-10T04:02:12.032Z,64.57
2023-05-10T04:04:38.964Z,64.80
2023-05-10T04:07:05.842Z,65.27
2023-05-10T04:09:32.619Z,65.19
2023-05-10T04:12:00.726Z,65.12
2023-05-10T04:14:27.457Z,65.00
2023-05-10T04:16:54.597Z,64.53
2023-05-10T04:19:21.467Z,64.71
2023-05-10T04:21:48.128Z,64.86
2023-05-10T04:24:14.982Z,64.70
2023-05-10T04:26:41.895Z,64.62
2023-05-10T04:29:08.586Z,65.17
2023-05-10T04:31:37.652Z,64.58
2023-05-10T04:34:04.435Z,64.71
2023-05-10T04:36:31.148Z,64.06
2023-05-10T04:38:57.887Z,63.79
2023-05-10T04:41:24.636Z,63.97
2023-05-10T04:43:51.352Z,63.88
2023-05-10T04:46:18.215Z,63.66
2023-05-10T04:48:45.127Z,62.89
2023-05-10T04:51:12.453Z,62.82
2023-05-10T04:53:39.762Z,62.98
2023-05-10T04:56:06.853Z,62.68
2023-05-10T04:58:33.518Z,62.88
2023-05-10T05:01:07.613Z,62.58
2023-05-10T05:03:34.685Z,63.00
2023-05-10T05:06:01.512Z,62.58
2023-05-10T05:08:28.288Z,62.75
2023-05-10T05:10:55.746Z,62.07
2023-05-10T05:13:22.698Z,61.98
2023-05-10T05:15:49.618Z,61.90
2023-05-10T05:18:16.397Z,61.48
2023-05-10T05:20:43.133Z,62.20
2023-05-10T05:23:10.196Z,61.44
2023-05-10T05:25:37.368Z,61.49
2023-05-10T05:28:04.179Z,61.49
2023-05-10T05:30:30.905Z,61.59
2023-05-10T05:32:57.818Z,62.10
2023-05-10T05:35:24.705Z,61.26
2023-05-10T05:37:51.373Z,61.72
2023-05-10T05:40:18.168Z,61.53
2023-05-10T05:42:44.799Z,61.57
2023-05-10T05:45:14.340Z,61.07
2023-05-10T05:47:41.447Z,60.59
2023-05-10T05:50:08.495Z,61.28
2023-05-10T05:52:35.137Z,59.87
2023-05-10T05:55:02.082Z,60.35
2023-05-10T05:57:28.881Z,59.89
2023-05-10T05:59:55.563Z,60.27
2023-05-10T06:02:22.328Z,60.24
2023-05-10T06:04:49.121Z,60.10
2023-05-10T06:07:16.951Z,59.87
2023-05-10T06:09:43.390Z,59.58
2023-05-10T06:12:09.782Z,59.33
2023-05-10T06:14:36.227Z,60.33
2023-05-10T06:17:05.039Z,59.98
2023-05-10T06:19:31.751Z,59.77
2023-05-10T06:21:58.212Z,59.88
2023-05-10T06:24:24.687Z,59.68
2023-05-10T06:26:51.416Z,59.60
2023-05-10T06:29:18.540Z,60.25
2023-05-10T06:31:45.076Z,60.29
2023-05-10T06:34:12.690Z,58.34
2023-05-10T06:36:39.331Z,57.35
2023-05-10T06:39:06.569Z,57.91
2023-05-10T06:41:33.050Z,57.56
2023-05-10T06:43:59.454Z,56.43
2023-05-10T06:46:25.916Z,56.72
2023-05-10T06:48:52.350Z,56.38
2023-05-10T06:51:19.095Z,56.15
2023-05-10T06:53:45.596Z,56.02
2023-05-10T06:56:12.011Z,55.78
2023-05-10T06:58:39.083Z,56.14
2023-05-10T07:01:06.473Z,55.92
2023-05-10T07:03:33.157Z,57.07
2023-05-10T07:06:13.279Z,57.18
2023-05-10T07:08:45.052Z,58.35
2023-05-10T07:11:11.647Z,58.40
2023-05-10T07:13:39.995Z,59.49
2023-05-10T07:16:07.351Z,58.99
2023-05-10T07:18:34.269Z,59.35
2023-05-10T07:21:00.728Z,59.80
2023-05-10T07:23:27.139Z,60.11
2023-05-10T07:25:54.314Z,61.14
2023-05-10T07:28:21.181Z,61.87
2023-05-10T07:30:47.980Z,61.70
2023-05-10T07:33:15.430Z,60.98
2023-05-10T07:35:42.319Z,61.26
2023-05-10T07:38:08.838Z,61.18
2023-05-10T07:40:35.292Z,60.59
2023-05-10T07:43:02.738Z,60.86
2023-05-10T07:45:29.664Z,62.40
2023-05-10T07:47:56.207Z,62.77
2023-05-10T07:50:22.768Z,63.81
2023-05-10T07:52:49.289Z,63.68
2023-05-10T07:55:16.042Z,63.61
2023-05-10T07:57:43.193Z,63.75
2023-05-10T08:00:10.439Z,64.02
2023-05-10T08:02:37.376Z,64.10
2023-05-10T08:05:04.193Z,64.12
2023-05-10T08:07:30.614Z,64.43
2023-05-10T08:09:57.092Z,65.46
2023-05-10T08:12:23.672Z,66.71
2023-05-10T08:14:50.089Z,67.13
2023-05-10T08:17:17.686Z,67.03
2023-05-10T08:19:45.104Z,68.86
2023-05-10T08:22:11.636Z,68.65
2023-05-10T08:24:39.359Z,70.09
2023-05-10T08:27:06.631Z,70.38
2023-05-10T08:29:46.274Z,69.47
2023-05-10T08:32:16.596Z,69.66
2023-05-10T08:34:43.046Z,69.45
2023-05-10T08:37:09.645Z,69.82
2023-05-10T08:39:36.487Z,69.20
2023-05-10T08:42:05.680Z,69.44
2023-05-10T08:44:35.968Z,70.30
2023-05-10T08:47:06.581Z,70.09
2023-05-10T08:49:34.583Z,70.52
2023-05-10T08:52:04.572Z,69.86
2023-05-10T08:54:32.867Z,69.49
2023-05-10T08:56:59.417Z,69.32
2023-05-10T08:59:26.283Z,69.65
2023-05-10T09:01:54.882Z,70.57
2023-05-10T09:04:22.221Z,70.37
2023-05-10T09:06:48.992Z,70.02
2023-05-10T09:09:17.073Z,70.72
2023-05-10T09:11:44.516Z,70.75
2023-05-10T09:14:13.389Z,70.68
2023-05-10T09:16:40.835Z,71.23
2023-05-10T09:19:08.296Z,71.55
2023-05-10T09:21:39.043Z,71.36
2023-05-10T09:24:07.405Z,72.93
2023-05-10T09:26:34.204Z,72.27
2023-05-10T09:29:01.219Z,72.85
2023-05-10T09:31:55.841Z,72.13
2023-05-10T09:34:32.215Z,72.77
2023-05-10T09:37:02.302Z,72.17
2023-05-10T09:39:39.772Z,73.27
2023-05-10T09:42:08.750Z,72.77
2023-05-10T09:44:35.912Z,72.65
2023-05-10T09:47:03.334Z,73.28
2023-05-10T09:49:30.243Z,74.26
2023-05-10T09:52:08.449Z,74.37
2023-05-10T09:54:35.832Z,74.39
2023-05-10T09:57:02.631Z,74.98
2023-05-10T09:59:29.605Z,74.57
2023-05-10T10:02:00.727Z,74.60
2023-05-10T10:04:27.724Z,74.85
2023-05-10T10:07:02.471Z,74.25
2023-05-10T10:09:29.726Z,75.03
2023-05-10T10:11:57.548Z,75.82
2023-05-10T10:14:25.033Z,74.82
2023-05-10T10:17:06.764Z,75.06
2023-05-10T10:19:36.030Z,74.06
2023-05-10T10:22:02.564Z,74.46
2023-05-10T10:24:29.126Z,75.57
2023-05-10T10:27:03.251Z,74.60
2023-05-10T10:29:37.802Z,75.77
2023-05-10T10:32:08.807Z,75.10
2023-05-10T10:34:35.693Z,74.76
2023-05-10T10:37:07.570Z,74.02
2023-05-10T10:39:34.181Z,74.34
2023-05-10T10:42:01.248Z,74.80
2023-05-10T10:44:34.855Z,74.92
2023-05-10T10:47:07.164Z,74.97
2023-05-10T10:49:38.836Z,75.72
2023-05-10T10:52:18.677Z,74.78
2023-05-10T10:54:52.324Z,75.21
2023-05-10T10:57:20.505Z,75.91
2023-05-10T10:59:47.364Z,74.73
2023-05-10T11:02:54.778Z,75.05
2023-05-10T11:05:42.910Z,73.66
2023-05-10T11:08:13.937Z,73.97
2023-05-10T11:10:41.842Z,73.96
2023-05-10T11:13:10.138Z,74.35
2023-05-10T11:15:41.533Z,74.42
2023-05-10T11:18:18.908Z,74.81
2023-05-10T11:20:50.988Z,74.73
2023-05-10T11:23:18.910Z,74.84
2023-05-10T11:25:49.865Z,74.08
2023-05-10T11:28:19.707Z,74.03
2023-05-10T11:30:46.817Z,74.03
2023-05-10T11:33:20.767Z,74.42
2023-05-10T11:35:47.535Z,73.85
2023-05-10T11:38:15.287Z,74.38
2023-05-10T11:40:42.805Z,74.49
2023-05-10T11:43:11.861Z,74.97
2023-05-10T11:45:39.111Z,75.46
2023-05-10T11:48:05.928Z,75.96
2023-05-10T11:50:33.688Z,76.41
2023-05-10T11:53:00.270Z,77.03
2023-05-10T11:55:26.980Z,77.04
2023-05-10T11:57:55.890Z,76.63
2023-05-10T12:00:22.954Z,76.58
2023-05-10T12:02:49.970Z,76.50
2023-05-10T12:05:17.431Z,76.71
2023-05-10T12:07:44.212Z,76.70
2023-05-10T12:10:16.031Z,76.90
2023-05-10T12:12:46.674Z,76.59
2023-05-10T12:15:24.587Z,76.56
2023-05-10T12:17:52.089Z,76.78
2023-05-10T12:20:21.170Z,77.93
2023-05-10T12:22:50.082Z,78.13
2023-05-10T12:25:17.522Z,78.32
2023-05-10T12:27:58.678Z,78.63
2023-05-10T12:30:30.379Z,78.22
2023-05-10T12:33:14.472Z,78.83
2023-05-10T12:35:49.294Z,78.44
2023-05-10T12:38:33.153Z,78.44
2023-05-10T12:41:01.751Z,78.66
2023-05-10T12:43:28.438Z,77.40
2023-05-10T12:45:55.128Z,77.51
2023-05-10T12:48:22.082Z,77.80
2023-05-10T12:50:48.761Z,77.19
2023-05-10T12:53:16.697Z,77.27
2023-05-10T12:55:44.117Z,77.53
2023-05-10T12:58:12.409Z,77.46
2023-05-10T13:00:40.625Z,76.42
2023-05-10T13:03:07.272Z,76.20
2023-05-10T13:05:34.284Z,76.28
2023-05-10T13:08:01.306Z,77.38
2023-05-10T13:10:29.087Z,77.39
2023-05-10T13:12:55.754Z,76.55
2023-05-10T13:15:22.276Z,76.31
2023-05-10T13:17:48.871Z,75.99
2023-05-10T13:20:15.811Z,75.03
2023-05-10T13:22:45.325Z,74.89
2023-05-10T13:25:12.542Z,75.15
2023-05-10T13:27:40.997Z,75.62
2023-05-10T13:30:09.253Z,74.85
2023-05-10T13:32:36.572Z,75.92
2023-05-10T13:35:04.212Z,75.66
2023-05-10T13:37:31.758Z,74.28
2023-05-10T13:39:58.242Z,74.15
2023-05-10T13:42:25.008Z,74.23
2023-05-10T13:44:52.323Z,73.15
2023-05-10T13:47:19.015Z,73.26
2023-05-10T13:49:45.606Z,73.70
2023-05-10T13:52:12.986Z,72.92
2023-05-10T13:54:40.004Z,71.71
2023-05-10T13:57:06.482Z,72.44
2023-05-10T13:59:33.456Z,72.68
2023-05-10T14:02:01.249Z,71.91
2023-05-10T14:04:27.806Z,72.50
2023-05-10T14:06:54.397Z,74.66
2023-05-10T14:09:21.084Z,74.52
2023-05-10T14:11:47.700Z,74.42
2023-05-10T14:14:14.466Z,74.42
2023-05-10T14:16:45.521Z,74.77
2023-05-10T14:19:12.316Z,74.57
2023-05-10T14:21:39.097Z,75.87
2023-05-10T14:24:06.032Z,76.32
2023-05-10T14:26:32.632Z,76.34
2023-05-10T14:29:00.194Z,75.79
2023-05-10T14:31:26.908Z,76.71
2023-05-10T14:33:54.200Z,76.68
2023-05-10T14:36:20.826Z,76.59
2023-05-10T14:38:47.695Z,77.17
2023-05-10T14:41:16.371Z,76.96
2023-05-10T14:43:43.204Z,76.51
2023-05-10T14:46:09.814Z,76.13
2023-05-10T14:48:36.814Z,76.72
2023-05-10T14:51:04.748Z,77.13
2023-05-10T14:53:31.783Z,76.94
2023-05-10T14:55:58.474Z,76.99
2023-05-10T14:58:34.466Z,76.08
2023-05-10T15:01:01.783Z,76.65
2023-05-10T15:03:29.141Z,76.63
2023-05-10T15:05:58.605Z,76.65
2023-05-10T15:08:28.219Z,76.28
2023-05-10T15:10:57.007Z,76.75
2023-05-10T15:13:23.800Z,76.67
2023-05-10T15:15:50.655Z,76.87
2023-05-10T15:18:17.454Z,77.83
2023-05-10T15:20:45.834Z,77.81
2023-05-10T15:23:12.302Z,77.14
2023-05-10T15:25:38.888Z,77.25
2023-05-10T15:28:05.541Z,77.00
2023-05-10T15:30:32.194Z,77.33
2023-05-10T15:32:58.895Z,77.02
2023-05-10T15:35:26.951Z,77.31
2023-05-10T15:37:53.513Z,78.08
2023-05-10T15:40:20.426Z,78.29
2023-05-10T15:42:46.970Z,78.49
2023-05-10T15:45:14.474Z,78.37
2023-05-10T15:47:41.136Z,78.23
2023-05-10T15:50:08.683Z,78.40
2023-05-10T15:52:36.077Z,78.81
2023-05-10T15:55:04.573Z,78.76
2023-05-10T15:57:31.157Z,78.67
2023-05-10T15:59:58.257Z,78.67
2023-05-10T16:02:25.109Z,79.62
2023-05-10T16:04:51.819Z,78.68
2023-05-10T16:07:18.727Z,78.99
2023-05-10T16:09:45.291Z,78.87
2023-05-10T16:12:11.801Z,78.69
2023-05-10T16:14:38.318Z,77.94
2023-05-10T16:17:05.068Z,77.74
2023-05-10T16:19:32.002Z,77.92
2023-05-10T16:21:58.809Z,77.58
2023-05-10T16:24:26.479Z,77.36
2023-05-10T16:26:53.399Z,76.99
2023-05-10T16:29:20.042Z,76.41
2023-05-10T16:31:46.952Z,76.81
2023-05-10T16:34:13.582Z,76.55
2023-05-10T16:36:40.351Z,76.31
2023-05-10T16:39:06.858Z,76.56
2023-05-10T16:41:34.484Z,76.53
2023-05-10T16:44:01.838Z,76.13
2023-05-10T16:46:28.748Z,76.57
2023-05-10T16:48:56.161Z,76.74
2023-05-10T16:51:22.660Z,77.30
2023-05-10T16:53:49.747Z,76.97
2023-05-10T16:56:18.355Z,77.00
2023-05-10T16:58:44.912Z,77.34
2023-05-10T17:01:11.461Z,76.34
2023-05-10T17:03:38.081Z,77.36
2023-05-10T17:06:06.139Z,77.15
2023-05-10T17:08:33.373Z,77.57
2023-05-10T17:11:04.496Z,78.31
2023-05-10T17:13:31.910Z,79.02
2023-05-10T17:16:05.944Z,78.94
2023-05-10T17:18:32.646Z,79.13
2023-05-10T17:21:00.427Z,78.83
2023-05-10T17:23:27.114Z,78.89
2023-05-10T17:25:53.559Z,78.95
2023-05-10T17:28:20.121Z,78.74
2023-05-10T17:30:46.646Z,78.69
2023-05-10T17:33:13.419Z,78.31
2023-05-10T17:35:39.921Z,78.03
2023-05-10T17:38:08.040Z,78.35
2023-05-10T17:40:34.585Z,78.07
2023-05-10T17:43:01.283Z,78.19
2023-05-10T17:45:27.818Z,78.11
2023-05-10T17:47:54.572Z,77.99
2023-05-10T17:50:21.582Z,77.93
2023-05-10T17:52:48.180Z,78.23
2023-05-10T17:55:15.044Z,78.52
2023-05-10T17:57:41.938Z,78.99
2023-05-10T18:00:09.231Z,78.66
2023-05-10T18:02:37.183Z,79.40
2023-05-10T18:05:04.930Z,78.92
2023-05-10T18:07:31.830Z,78.67
2023-05-10T18:09:58.518Z,78.66
2023-05-10T18:12:25.110Z,79.22
2023-05-10T18:14:51.738Z,78.91
2023-05-10T18:17:18.947Z,79.03
2023-05-10T18:19:45.478Z,79.19
2023-05-10T18:22:12.399Z,79.07
2023-05-10T18:24:40.058Z,79.40
2023-05-10T18:27:09.063Z,79.35
2023-05-10T18:29:36.982Z,79.19
2023-05-10T18:32:04.127Z,79.39
2023-05-10T18:34:30.699Z,79.50
2023-05-10T18:36:57.487Z,79.39
2023-05-10T18:39:24.984Z,79.64
2023-05-10T18:41:51.955Z,79.66
2023-05-10T18:44:19.298Z,80.34
2023-05-10T18:46:46.324Z,80.23
2023-05-10T18:49:13.378Z,80.34
2023-05-10T18:51:40.097Z,79.98
2023-05-10T18:54:06.623Z,79.77
2023-05-10T18:56:33.773Z,79.89
2023-05-10T18:59:00.405Z,79.94
2023-05-10T19:01:26.883Z,80.00
2023-05-10T19:03:53.416Z,79.98
2023-05-10T19:06:20.170Z,79.92
2023-05-10T19:08:46.689Z,80.13
2023-05-10T19:11:13.186Z,80.14
2023-05-10T19:13:39.685Z,80.15
2023-05-10T19:16:12.129Z,80.19
2023-05-10T19:18:39.870Z,80.19
2023-05-10T19:21:07.663Z,80.47
2023-05-10T19:23:34.833Z,80.39
2023-05-10T19:26:01.684Z,80.62
2023-05-10T19:28:28.973Z,80.42
2023-05-10T19:30:55.737Z,80.81
2023-05-10T19:33:22.281Z,80.52
2023-05-10T19:35:52.202Z,80.68
2023-05-10T19:38:26.366Z,80.69
2023-05-10T19:40:58.055Z,80.75
2023-05-10T19:43:29.578Z,80.50
2023-05-10T19:46:02.826Z,80.52
2023-05-10T19:48:29.901Z,80.29
2023-05-10T19:51:04.002Z,80.36
2023-05-10T19:53:31.651Z,80.40
2023-05-10T19:56:05.242Z,80.47
2023-05-10T19:58:33.222Z,80.56
2023-05-10T20:01:00.246Z,80.63
2023-05-10T20:03:27.353Z,80.78
2023-05-10T20:05:54.072Z,81.12
2023-05-10T20:08:20.708Z,81.34
2023-05-10T20:10:47.171Z,80.92
2023-05-10T20:13:13.768Z,81.03
2023-05-10T20:15:40.348Z,80.71
2023-05-10T20:18:07.092Z,80.90
2023-05-10T20:20:33.671Z,80.86
2023-05-10T20:23:00.349Z,81.00
2023-05-10T20:25:26.912Z,80.92
2023-05-10T20:27:54.564Z,81.09
2023-05-10T20:30:21.734Z,81.16
2023-05-10T20:32:48.283Z,80.73
2023-05-10T20:35:15.136Z,80.83
2023-05-10T20:37:41.688Z,80.96
2023-05-10T20:40:08.697Z,80.93
2023-05-10T20:42:35.280Z,81.25
2023-05-10T20:45:01.812Z,81.37
2023-05-10T20:47:28.748Z,81.26
2023-05-10T20:49:55.901Z,81.02
2023-05-10T20:52:24.537Z,81.45
2023-05-10T20:54:51.328Z,80.92
2023-05-10T20:57:17.960Z,81.09
2023-05-10T20:59:44.477Z,80.96
2023-05-10T21:02:10.982Z,81.34
2023-05-10T21:04:37.978Z,81.46
2023-05-10T21:07:04.494Z,81.31
2023-05-10T21:09:31.110Z,81.11
2023-05-10T21:11:57.956Z,81.05
2023-05-10T21:14:24.762Z,81.60
2023-05-10T21:16:51.405Z,81.40
2023-05-10T21:19:18.087Z,81.49
2023-05-10T21:21:44.884Z,81.55
2023-05-10T21:24:11.500Z,81.55
2023-05-10T21:26:38.365Z,81.50
2023-05-10T21:29:05.193Z,81.39
2023-05-10T21:31:31.922Z,81.40
2023-05-10T21:33:58.549Z,81.48
2023-05-10T21:36:25.879Z,81.68
2023-05-10T21:38:52.724Z,81.81
2023-05-10T21:41:19.276Z,81.85
2023-05-10T21:43:45.805Z,81.91
2023-05-10T21:46:13.429Z,82.31
2023-05-10T21:48:40.116Z,82.25
2023-05-10T21:51:07.860Z,81.80
2023-05-10T21:53:37.330Z,81.70
2023-05-10T21:56:03.878Z,81.53
2023-05-10T21:58:30.409Z,82.00
2023-05-10T22:00:57.603Z,81.90
2023-05-10T22:03:24.741Z,81.91
2023-05-10T22:05:51.384Z,81.80
2023-05-10T22:08:17.925Z,81.44
2023-05-10T22:10:45.877Z,81.52
2023-05-10T22:13:12.367Z,81.39
2023-05-10T22:15:39.404Z,80.90
2023-05-10T22:18:06.082Z,81.20
2023-05-10T22:20:32.714Z,80.65
2023-05-10T22:22:59.579Z,80.46
2023-05-10T22:25:26.313Z,80.83
2023-05-10T22:27:52.920Z,80.61
2023-05-10T22:30:20.171Z,80.64
2023-05-10T22:32:47.276Z,80.79
2023-05-10T22:35:13.908Z,80.57
2023-05-10T22:37:40.385Z,80.99
2023-05-10T22:40:07.680Z,80.89
2023-05-10T22:42:34.310Z,80.96
2023-05-10T22:45:00.811Z,81.05
2023-05-10T22:47:27.331Z,81.49
2023-05-10T22:49:55.278Z,81.75
2023-05-10T22:52:21.857Z,81.60
2023-05-10T22:54:48.349Z,82.15
2023-05-10T22:57:15.137Z,82.00
2023-05-10T22:59:42.425Z,81.93
2023-05-10T23:02:09.949Z,81.87
2023-05-10T23:04:37.095Z,82.09
2023-05-10T23:07:03.721Z,82.64
2023-05-10T23:09:30.307Z,82.36
2023-05-10T23:11:57.428Z,82.14
2023-05-10T23:14:24.144Z,81.92
2023-05-10T23:16:50.902Z,82.15
2023-05-10T23:19:17.470Z,81.89
2023-05-10T23:21:44.013Z,81.95
2023-05-10T23:24:11.713Z,81.82
2023-05-10T23:26:38.363Z,81.63
2023-05-10T23:29:05.081Z,81.97
2023-05-10T23:31:31.660Z,81.92
2023-05-10T23:33:58.463Z,81.92
2023-05-10T23:36:24.998Z,82.28
2023-05-10T23:38:51.752Z,82.24
2023-05-10T23:41:19.327Z,82.02
2023-05-10T23:43:45.790Z,82.04
2023-05-10T23:46:12.363Z,81.94
2023-05-10T23:48:38.943Z,82.03
2023-05-10T23:51:05.491Z,82.18
2023-05-10T23:53:32.527Z,82.44
2023-05-10T23:55:59.120Z,82.20
2023-05-10T23:58:25.914Z,82.29
